Time;durP1;ratioP1;P1;durP2;ratioP2;P2;SDS_P1;SDS_P2;PMS_P1;PMS_P2;Temp;Humidity;BMP_temperature;BMP_pressure;BME280_temperature;BME280_humidity;BME280_pressure;Samples;Min_cycle;Max_cycle;Signal;HPM_P1;HPM_P2
2023/02/15 00:01:32;;;;;;;1.37;0.90;;;;;;;;;;5093827;28;20020;-62
2023/02/15 00:03:58;;;;;;;1.47;1.03;;;;;;;;;;5073653;28;20418;-61
2023/02/15 00:06:25;;;;;;;1.13;0.73;;;;;;;;;;5070711;28;20035;-61
2023/02/15 00:08:52;;;;;;;2.00;1.07;;;;;;;;;;5068366;28;20016;-60
2023/02/15 00:11:40;;;;;;;2.53;1.10;;;;;;;;;;5067856;28;20107;-61
2023/02/15 00:14:16;;;;;;;2.13;1.17;;;;;;;;;;5105967;28;20093;-61
2023/02/15 00:16:44;;;;;;;1.33;0.97;;;;;;;;;;5089459;28;20078;-61
2023/02/15 00:19:11;;;;;;;2.07;1.23;;;;;;;;;;5093644;28;20035;-61
2023/02/15 00:21:38;;;;;;;7.73;1.33;;;;;;;;;;5074848;28;20383;-61
2023/02/15 00:24:05;;;;;;;11.43;1.30;;;;;;;;;;5093337;28;20016;-61
2023/02/15 00:26:33;;;;;;;3.63;0.83;;;;;;;;;;5093337;28;20070;-61
2023/02/15 00:29:00;;;;;;;4.50;0.90;;;;;;;;;;5089579;28;20063;-61
2023/02/15 00:31:27;;;;;;;3.57;1.27;;;;;;;;;;5088189;28;20390;-61
2023/02/15 00:33:54;;;;;;;0.80;0.77;;;;;;;;;;5088248;28;20032;-61
2023/02/15 00:36:20;;;;;;;2.63;1.37;;;;;;;;;;5088267;28;20362;-61
2023/02/15 00:38:47;;;;;;;6.80;1.10;;;;;;;;;;5091384;28;20055;-60
2023/02/15 00:41:14;;;;;;;1.43;0.90;;;;;;;;;;5093015;28;20133;-61
2023/02/15 00:43:40;;;;;;;5.23;1.30;;;;;;;;;;5093078;28;20089;-61
2023/02/15 00:46:07;;;;;;;1.50;0.93;;;;;;;;;;5094984;28;20016;-61
2023/02/15 00:48:34;;;;;;;3.07;1.20;;;;;;;;;;5113263;28;20575;-61
2023/02/15 00:51:01;;;;;;;1.17;0.90;;;;;;;;;;5109055;28;20019;-60
2023/02/15 00:53:28;;;;;;;1.43;0.90;;;;;;;;;;5108326;28;20031;-61
2023/02/15 00:55:55;;;;;;;1.53;1.03;;;;;;;;;;5089617;28;20023;-62
2023/02/15 00:58:21;;;;;;;1.77;1.10;;;;;;;;;;5108056;28;20482;-60
2023/02/15 01:00:48;;;;;;;1.07;0.80;;;;;;;;;;5095446;28;20085;-60
2023/02/15 01:03:16;;;;;;;1.50;0.93;;;;;;;;;;5092872;28;20048;-61
2023/02/15 01:05:42;;;;;;;2.13;1.10;;;;;;;;;;5092804;28;20047;-61
2023/02/15 01:08:09;;;;;;;2.73;0.67;;;;;;;;;;5092770;28;20036;-61
2023/02/15 01:10:36;;;;;;;1.67;1.10;;;;;;;;;;5092484;28;20085;-61
2023/02/15 01:13:03;;;;;;;2.23;1.17;;;;;;;;;;5091510;28;20028;-60
2023/02/15 01:15:30;;;;;;;2.77;1.07;;;;;;;;;;5087555;28;20102;-60
2023/02/15 01:17:57;;;;;;;3.40;1.30;;;;;;;;;;5093776;28;20023;-62
2023/02/15 01:20:25;;;;;;;1.30;1.00;;;;;;;;;;5108072;28;20032;-60
2023/02/15 01:22:52;;;;;;;1.77;1.00;;;;;;;;;;5108687;28;20373;-60
2023/02/15 01:25:20;;;;;;;3.30;0.90;;;;;;;;;;5094214;28;20034;-60
2023/02/15 01:27:47;;;;;;;1.30;0.83;;;;;;;;;;5096173;28;20020;-61
2023/02/15 01:30:14;;;;;;;0.90;0.70;;;;;;;;;;5112352;28;20039;-60
2023/02/15 01:32:41;;;;;;;2.90;1.13;;;;;;;;;;5112684;28;20030;-61
2023/02/15 01:35:08;;;;;;;1.20;0.87;;;;;;;;;;5101653;28;20371;-61
2023/02/15 01:37:35;;;;;;;5.70;1.57;;;;;;;;;;5087149;28;20020;-60
2023/02/15 01:40:03;;;;;;;4.63;1.47;;;;;;;;;;5096428;28;20813;-61
2023/02/15 01:42:30;;;;;;;1.87;1.23;;;;;;;;;;5111756;28;20034;-61
2023/02/15 01:45:00;;;;;;;2.50;1.10;;;;;;;;;;5112012;28;20031;-60
2023/02/15 01:47:42;;;;;;;2.67;1.13;;;;;;;;;;5116465;28;20024;-61
2023/02/15 01:50:18;;;;;;;3.97;1.97;;;;;;;;;;5116514;28;20016;-61
2023/02/15 01:52:47;;;;;;;1.73;1.13;;;;;;;;;;5103689;28;20095;-60
2023/02/15 01:55:14;;;;;;;6.77;1.00;;;;;;;;;;5096122;28;20028;-60
2023/02/15 01:57:41;;;;;;;3.90;0.83;;;;;;;;;;5092840;28;20024;-60
2023/02/15 02:00:09;;;;;;;4.10;1.33;;;;;;;;;;5090783;28;20099;-60
2023/02/15 02:02:36;;;;;;;2.13;1.13;;;;;;;;;;5090617;28;20539;-61
2023/02/15 02:05:06;;;;;;;1.03;0.83;;;;;;;;;;5106975;28;20039;-61
2023/02/15 02:07:44;;;;;;;10.33;1.20;;;;;;;;;;5112099;28;20048;-60
2023/02/15 02:10:13;;;;;;;2.23;1.37;;;;;;;;;;5116187;28;20020;-60
2023/02/15 02:12:41;;;;;;;0.97;0.70;;;;;;;;;;5115107;28;20485;-61
2023/02/15 02:15:08;;;;;;;1.73;1.10;;;;;;;;;;5116404;28;20509;-61
2023/02/15 02:17:41;;;;;;;4.13;1.50;;;;;;;;;;5113932;28;20027;-60
2023/02/15 02:20:10;;;;;;;1.40;0.90;;;;;;;;;;5113594;28;20020;-61
2023/02/15 02:22:49;;;;;;;5.40;1.70;;;;;;;;;;5110953;28;20024;-61
2023/02/15 02:25:25;;;;;;;3.13;1.23;;;;;;;;;;5110650;28;20071;-61
2023/02/15 02:27:58;;;;;;;2.13;1.20;;;;;;;;;;5105185;28;20032;-61
2023/02/15 02:30:43;;;;;;;1.53;0.80;;;;;;;;;;5092855;28;20032;-61
2023/02/15 02:33:09;;;;;;;;;;;;;;;;;;5095592;28;20064;-61
2023/02/15 02:35:43;;;;;;;3.63;1.27;;;;;;;;;;5095786;28;19909;-61
2023/02/15 02:38:19;;;;;;;3.42;1.65;;;;;;;;;;5095662;28;20475;-61
2023/02/15 02:41:08;;;;;;;1.73;1.23;;;;;;;;;;5106090;28;20106;-60
2023/02/15 02:43:41;;;;;;;2.30;1.20;;;;;;;;;;5110935;28;20504;-61
2023/02/15 02:46:14;;;;;;;3.03;1.27;;;;;;;;;;5110389;28;20456;-62
2023/02/15 02:48:41;;;;;;;2.00;1.07;;;;;;;;;;5110149;28;20039;-61
2023/02/15 02:51:07;;;;;;;6.57;1.70;;;;;;;;;;5097306;28;20028;-61
2023/02/15 02:53:34;;;;;;;2.20;1.10;;;;;;;;;;5094131;28;20024;-60
2023/02/15 02:56:10;;;;;;;2.10;1.10;;;;;;;;;;5094981;28;20028;-60
2023/02/15 02:58:50;;;;;;;2.10;1.20;;;;;;;;;;5094959;28;20028;-60
2023/02/15 03:01:22;;;;;;;10.33;2.37;;;;;;;;;;5102484;28;20107;-60
2023/02/15 03:03:51;;;;;;;2.27;1.27;;;;;;;;;;5115410;28;20474;-60
2023/02/15 03:06:24;;;;;;;11.43;1.50;;;;;;;;;;5109742;28;20098;-60
2023/02/15 03:08:55;;;;;;;1.67;1.03;;;;;;;;;;5109900;28;20040;-61
2023/02/15 03:11:21;;;;;;;1.13;0.97;;;;;;;;;;5109906;28;20085;-60
2023/02/15 03:13:49;;;;;;;2.80;1.33;;;;;;;;;;5096402;28;20078;-60
2023/02/15 03:16:27;;;;;;;32.70;1.67;;;;;;;;;;5094423;28;20020;-60
2023/02/15 03:19:01;;;;;;;5.60;1.63;;;;;;;;;;5094678;28;20051;-60
2023/02/15 03:21:37;;;;;;;2.45;1.27;;;;;;;;;;5094784;28;20074;-60
2023/02/15 03:24:07;;;;;;;1.43;0.87;;;;;;;;;;5094601;28;20031;-60
2023/02/15 03:26:35;;;;;;;2.03;1.00;;;;;;;;;;5111323;28;20532;-61
2023/02/15 03:29:03;;;;;;;5.37;1.00;;;;;;;;;;5109379;28;20038;-60
2023/02/15 03:31:32;;;;;;;2.00;1.10;;;;;;;;;;5109489;28;20106;-60
2023/02/15 03:34:04;;;;;;;1.77;0.60;;;;;;;;;;5109351;28;20550;-62
2023/02/15 03:36:40;;;;;;;1.73;0.80;;;;;;;;;;5089739;28;20031;-60
2023/02/15 03:39:29;;;;;;;1.03;0.83;;;;;;;;;;5094213;28;20467;-60
2023/02/15 03:42:04;;;;;;;0.70;0.63;;;;;;;;;;5077481;28;20478;-60
2023/02/15 03:44:31;;;;;;;1.35;0.88;;;;;;;;;;5114064;28;20028;-60
2023/02/15 03:46:58;;;;;;;4.00;1.33;;;;;;;;;;5096151;28;20080;-60
2023/02/15 03:49:48;;;;;;;8.17;1.83;;;;;;;;;;5112430;28;20424;-60
2023/02/15 03:52:15;;;;;;;3.73;1.23;;;;;;;;;;5078696;28;20049;-60
2023/02/15 03:54:42;;;;;;;4.10;1.37;;;;;;;;;;5088554;28;20099;-60
2023/02/15 04:02:53;;;;;;;8.10;0.93;;;;;;;;;;5094117;28;20035;-60
2023/02/15 04:05:20;;;;;;;2.33;0.73;;;;;;;;;;5097015;28;20028;-60
2023/02/15 04:07:46;;;;;;;10.83;1.73;;;;;;;;;;5093438;28;20036;-60
2023/02/15 04:12:58;;;;;;;2.03;0.77;;;;;;;;;;5096174;28;20086;-59
2023/02/15 04:18:10;;;;;;;3.85;1.67;;;;;;;;;;5096872;28;20417;-59
2023/02/15 04:26:07;;;;;;;4.65;1.38;;;;;;;;;;5093222;28;20036;-60
2023/02/15 04:28:34;;;;;;;2.47;1.10;;;;;;;;;;5095743;28;20119;-60
2023/02/15 04:31:01;;;;;;;1.53;1.00;;;;;;;;;;5093243;28;20039;-60
2023/02/15 04:33:27;;;;;;;2.93;1.23;;;;;;;;;;5092633;28;20115;-60
2023/02/15 04:35:54;;;;;;;2.80;1.07;;;;;;;;;;5087879;28;20790;-59
2023/02/15 04:38:22;;;;;;;1.53;0.90;;;;;;;;;;5087828;28;20020;-60
2023/02/15 04:40:52;;;;;;;1.27;0.90;;;;;;;;;;5104830;28;20366;-60
2023/02/15 04:43:21;;;;;;;2.37;1.50;;;;;;;;;;5107783;28;20030;-60
2023/02/15 04:45:51;;;;;;;4.43;1.80;;;;;;;;;;5113610;28;20020;-59
2023/02/15 04:48:18;;;;;;;2.40;1.30;;;;;;;;;;5113380;28;20046;-60
2023/02/15 04:50:45;;;;;;;1.93;1.10;;;;;;;;;;5110871;28;20012;-60
2023/02/15 04:53:12;;;;;;;2.10;1.27;;;;;;;;;;5092895;28;20084;-60
2023/02/15 04:55:39;;;;;;;1.33;0.90;;;;;;;;;;5092561;28;20024;-60
2023/02/15 04:58:05;;;;;;;0.77;0.70;;;;;;;;;;5090997;28;20406;-60
2023/02/15 05:00:32;;;;;;;1.43;1.10;;;;;;;;;;5090894;28;20026;-59
2023/02/15 05:02:59;;;;;;;14.97;1.00;;;;;;;;;;5087373;28;20026;-60
2023/02/15 05:05:26;;;;;;;1.37;1.10;;;;;;;;;;5087215;28;20466;-59
2023/02/15 05:07:52;;;;;;;1.27;0.83;;;;;;;;;;5092341;28;20028;-60
2023/02/15 05:10:19;;;;;;;1.00;0.90;;;;;;;;;;5106381;28;20466;-60
2023/02/15 05:12:46;;;;;;;1.30;0.90;;;;;;;;;;5112960;28;20028;-60
2023/02/15 05:15:13;;;;;;;1.70;1.30;;;;;;;;;;5112591;28;20032;-60
2023/02/15 05:17:40;;;;;;;3.27;1.13;;;;;;;;;;5112425;28;20077;-60
2023/02/15 05:20:07;;;;;;;7.23;2.17;;;;;;;;;;5107316;28;20417;-60
2023/02/15 05:22:33;;;;;;;1.13;0.73;;;;;;;;;;5090710;28;20039;-60
2023/02/15 05:30:30;;;;;;;0.70;0.63;;;;;;;;;;5112855;28;20152;-60
2023/02/15 05:32:57;;;;;;;2.37;1.40;;;;;;;;;;5111751;28;20042;-60
2023/02/15 05:35:23;;;;;;;3.73;1.37;;;;;;;;;;5111247;28;20020;-59
2023/02/15 05:37:50;;;;;;;3.30;1.53;;;;;;;;;;5094294;28;20469;-60
2023/02/15 05:40:17;;;;;;;1.87;1.43;;;;;;;;;;5112135;28;20062;-60
2023/02/15 05:42:43;;;;;;;2.03;1.53;;;;;;;;;;5107075;28;20519;-60
2023/02/15 05:45:10;;;;;;;6.10;1.77;;;;;;;;;;5089849;28;20113;-60
2023/02/15 05:47:37;;;;;;;0.90;0.67;;;;;;;;;;5087002;28;20128;-60
2023/02/15 05:50:03;;;;;;;6.00;1.03;;;;;;;;;;5086753;28;20095;-60
2023/02/15 05:52:30;;;;;;;2.23;1.17;;;;;;;;;;5092136;28;20463;-59
2023/02/15 05:54:58;;;;;;;2.03;1.50;;;;;;;;;;5092132;28;20470;-60
2023/02/15 05:57:25;;;;;;;1.53;1.00;;;;;;;;;;5111773;28;20077;-60
2023/02/15 05:59:52;;;;;;;1.37;1.07;;;;;;;;;;5112140;28;20026;-59
2023/02/15 06:02:18;;;;;;;1.83;1.40;;;;;;;;;;5101446;28;20028;-60
2023/02/15 06:04:45;;;;;;;1.33;0.87;;;;;;;;;;5086735;28;20047;-60
2023/02/15 06:07:12;;;;;;;3.27;1.10;;;;;;;;;;5086538;28;20394;-59
2023/02/15 06:09:38;;;;;;;3.47;1.10;;;;;;;;;;5086758;28;20024;-60
2023/02/15 06:12:05;;;;;;;1.23;1.03;;;;;;;;;;5093587;28;20130;-60
2023/02/15 06:14:32;;;;;;;1.83;1.30;;;;;;;;;;5111712;28;20027;-59
2023/02/15 06:16:59;;;;;;;2.67;1.60;;;;;;;;;;5112270;28;20091;-59
2023/02/15 06:19:25;;;;;;;1.90;1.40;;;;;;;;;;5112299;28;20462;-60
2023/02/15 06:21:52;;;;;;;1.10;0.93;;;;;;;;;;5112310;28;20494;-59
2023/02/15 06:24:19;;;;;;;1.97;1.30;;;;;;;;;;5101994;28;20364;-60
2023/02/15 06:26:45;;;;;;;2.73;1.13;;;;;;;;;;5088523;28;20024;-59
2023/02/15 06:29:12;;;;;;;2.57;0.93;;;;;;;;;;5090288;28;20098;-60
2023/02/15 06:31:39;;;;;;;2.17;1.60;;;;;;;;;;5090364;28;20024;-59
2023/02/15 06:34:05;;;;;;;1.60;1.27;;;;;;;;;;5090087;28;20028;-60
2023/02/15 06:36:32;;;;;;;1.27;0.90;;;;;;;;;;5102160;28;20118;-60
2023/02/15 06:38:59;;;;;;;2.07;0.93;;;;;;;;;;5116112;28;20048;-59
2023/02/15 06:41:26;;;;;;;3.83;1.60;;;;;;;;;;5115625;28;20020;-59
2023/02/15 06:43:52;;;;;;;0.80;0.50;;;;;;;;;;5115975;28;20437;-59
2023/02/15 06:46:19;;;;;;;0.83;0.70;;;;;;;;;;5115855;28;20094;-59
2023/02/15 06:48:46;;;;;;;6.47;1.77;;;;;;;;;;5102876;28;20036;-59
2023/02/15 06:51:12;;;;;;;4.33;1.63;;;;;;;;;;5089849;28;20084;-59
2023/02/15 06:53:42;;;;;;;1.37;1.17;;;;;;;;;;5089755;28;20027;-59
2023/02/15 06:56:09;;;;;;;3.50;1.13;;;;;;;;;;5089805;28;20529;-60
2023/02/15 06:58:36;;;;;;;3.23;1.50;;;;;;;;;;5093044;28;20486;-60
2023/02/15 07:01:04;;;;;;;1.97;1.43;;;;;;;;;;5107095;28;20111;-60
2023/02/15 07:03:30;;;;;;;1.73;1.27;;;;;;;;;;5115527;28;20019;-60
2023/02/15 07:05:58;;;;;;;1.03;0.90;;;;;;;;;;5115311;28;20068;-60
2023/02/15 07:08:25;;;;;;;0.70;0.63;;;;;;;;;;5114903;28;20036;-59
2023/02/15 07:10:53;;;;;;;0.90;0.77;;;;;;;;;;5111307;28;20023;-60
2023/02/15 07:13:20;;;;;;;3.13;0.80;;;;;;;;;;5095248;28;20039;-60
2023/02/15 07:15:49;;;;;;;1.93;1.27;;;;;;;;;;5089212;28;20031;-60
2023/02/15 07:18:15;;;;;;;1.10;0.83;;;;;;;;;;5089430;28;20493;-59
2023/02/15 07:20:42;;;;;;;3.27;1.37;;;;;;;;;;5092296;28;20031;-60
2023/02/15 07:23:09;;;;;;;1.13;0.80;;;;;;;;;;5094501;28;20020;-60
2023/02/15 07:25:36;;;;;;;1.87;1.10;;;;;;;;;;5107757;28;20424;-59
2023/02/15 07:28:03;;;;;;;3.77;1.23;;;;;;;;;;5115031;28;20032;-60
2023/02/15 07:30:30;;;;;;;3.43;0.83;;;;;;;;;;5114957;28;20023;-60
2023/02/15 07:36:03;;;;;;;1.40;0.93;;;;;;;;;;5109544;28;20108;-60
2023/02/15 07:38:34;;;;;;;0.70;0.70;;;;;;;;;;5068518;28;20036;-60
2023/02/15 07:41:01;;;;;;;1.23;0.70;;;;;;;;;;5068631;28;20032;-60
2023/02/15 07:43:29;;;;;;;0.67;0.53;;;;;;;;;;5072666;28;20047;-59
2023/02/15 07:45:59;;;;;;;2.27;0.77;;;;;;;;;;5073992;28;20021;-59
2023/02/15 07:48:26;;;;;;;1.13;1.03;;;;;;;;;;5080533;28;20481;-59
2023/02/15 07:50:53;;;;;;;1.10;0.97;;;;;;;;;;5114138;28;20024;-60
2023/02/15 07:53:19;;;;;;;11.33;1.77;;;;;;;;;;5114527;28;20019;-59
2023/02/15 07:55:46;;;;;;;0.93;0.67;;;;;;;;;;5109900;28;20526;-59
2023/02/15 07:58:13;;;;;;;1.83;1.03;;;;;;;;;;5108950;28;20478;-60
2023/02/15 08:00:58;;;;;;;2.00;0.70;;;;;;;;;;5102142;28;20123;-64
2023/02/15 08:03:28;;;;;;;0.60;0.55;;;;;;;;;;5088493;28;20095;-59
2023/02/15 08:05:59;;;;;;;1.23;0.97;;;;;;;;;;5092743;28;20402;-59
2023/02/15 08:08:30;;;;;;;7.13;1.43;;;;;;;;;;5093591;28;20039;-60
2023/02/15 08:13:56;;;;;;;2.77;1.80;;;;;;;;;;5108875;28;20062;-60
2023/02/15 08:16:26;;;;;;;19.63;2.67;;;;;;;;;;5113449;28;20037;-59
2023/02/15 08:18:53;;;;;;;1.07;0.80;;;;;;;;;;5108584;28;20015;-59
2023/02/15 08:21:20;;;;;;;1.47;1.00;;;;;;;;;;5101655;28;20039;-60
2023/02/15 08:23:47;;;;;;;0.93;0.77;;;;;;;;;;5087899;28;20028;-59
2023/02/15 08:26:14;;;;;;;9.93;1.10;;;;;;;;;;5088033;28;20028;-60
2023/02/15 08:28:42;;;;;;;0.37;0.30;;;;;;;;;;5093360;28;20093;-59
2023/02/15 08:31:09;;;;;;;1.60;1.23;;;;;;;;;;5097643;28;20041;-59
2023/02/15 08:33:37;;;;;;;19.40;1.13;;;;;;;;;;5113688;28;20020;-60
2023/02/15 08:36:12;;;;;;;1.27;0.93;;;;;;;;;;5113629;28;20111;-60
2023/02/15 08:38:39;;;;;;;1.38;0.93;;;;;;;;;;5112880;28;20489;-60
2023/02/15 08:41:13;;;;;;;6.87;1.50;;;;;;;;;;5107879;28;20747;-59
2023/02/15 08:43:39;;;;;;;3.00;1.33;;;;;;;;;;5097697;28;20060;-59
2023/02/15 08:46:10;;;;;;;3.37;1.83;;;;;;;;;;5087676;28;20475;-59
2023/02/15 08:48:36;;;;;;;2.00;1.40;;;;;;;;;;5087304;28;20032;-59
2023/02/15 08:51:10;;;;;;;1.47;1.03;;;;;;;;;;5092439;28;20028;-59
2023/02/15 08:53:38;;;;;;;15.33;1.90;;;;;;;;;;5101465;28;20383;-59
2023/02/15 08:56:05;;;;;;;2.17;1.57;;;;;;;;;;5113203;28;20028;-59
2023/02/15 08:58:31;;;;;;;1.53;1.10;;;;;;;;;;5113007;28;20408;-59
2023/02/15 09:00:59;;;;;;;3.77;1.10;;;;;;;;;;5112307;28;20026;-59
2023/02/15 09:03:25;;;;;;;1.70;1.20;;;;;;;;;;5107802;28;20430;-59
2023/02/15 09:05:59;;;;;;;2.90;1.60;;;;;;;;;;5098930;28;20031;-59
2023/02/15 09:08:26;;;;;;;1.47;1.13;;;;;;;;;;5087261;28;20097;-59
2023/02/15 09:10:53;;;;;;;1.40;0.97;;;;;;;;;;5098960;28;20036;-59
2023/02/15 09:13:20;;;;;;;1.73;0.87;;;;;;;;;;5112764;28;20382;-59
2023/02/15 09:15:47;;;;;;;1.67;1.17;;;;;;;;;;5112815;28;20020;-59
2023/02/15 09:18:16;;;;;;;1.07;0.90;;;;;;;;;;5112954;28;20043;-59
2023/02/15 09:20:44;;;;;;;1.40;1.07;;;;;;;;;;5110454;28;20060;-59
2023/02/15 09:23:11;;;;;;;2.93;1.17;;;;;;;;;;5112008;28;20027;-59
2023/02/15 09:25:38;;;;;;;2.00;1.37;;;;;;;;;;5105720;28;20351;-60
2023/02/15 09:28:04;;;;;;;3.43;1.23;;;;;;;;;;5107423;28;20032;-59
2023/02/15 09:30:31;;;;;;;2.03;1.33;;;;;;;;;;5107485;28;20090;-59
2023/02/15 09:32:58;;;;;;;1.40;1.23;;;;;;;;;;5098172;28;20386;-60
2023/02/15 09:35:24;;;;;;;3.00;1.73;;;;;;;;;;5092255;28;20055;-59
2023/02/15 09:37:51;;;;;;;2.07;1.40;;;;;;;;;;5091981;28;20024;-59
2023/02/15 09:40:18;;;;;;;2.03;1.13;;;;;;;;;;5092221;28;20034;-59
2023/02/15 09:43:04;;;;;;;1.17;1.07;;;;;;;;;;5092246;28;20487;-59
2023/02/15 09:45:55;;;;;;;1.67;1.10;;;;;;;;;;5105171;28;20019;-59
2023/02/15 09:48:29;;;;;;;1.87;0.93;;;;;;;;;;5107228;28;20389;-60
2023/02/15 09:51:18;;;;;;;1.53;0.90;;;;;;;;;;5107119;28;20462;-59
2023/02/15 09:53:48;;;;;;;1.77;1.00;;;;;;;;;;5059654;28;20073;-59
2023/02/15 09:56:24;;;;;;;1.53;1.20;;;;;;;;;;5103510;28;20047;-59
2023/02/15 09:59:00;;;;;;;3.20;1.17;;;;;;;;;;5092086;28;20024;-59
2023/02/15 10:01:34;;;;;;;0.60;0.60;;;;;;;;;;5093354;28;20099;-59
2023/02/15 10:04:10;;;;;;;2.20;1.13;;;;;;;;;;5095963;28;20039;-59
2023/02/15 10:06:44;;;;;;;1.60;0.87;;;;;;;;;;5096127;28;20027;-59
2023/02/15 10:09:34;;;;;;;1.70;1.10;;;;;;;;;;5105784;28;20484;-59
2023/02/15 10:12:17;;;;;;;1.73;1.27;;;;;;;;;;5110706;28;20758;-59
2023/02/15 10:15:00;;;;;;;0.60;0.60;;;;;;;;;;5111128;28;20544;-59
2023/02/15 10:17:29;;;;;;;0.83;0.77;;;;;;;;;;5110883;28;20526;-59
2023/02/15 10:20:14;;;;;;;1.87;1.20;;;;;;;;;;5110673;28;20302;-59
2023/02/15 10:22:53;;;;;;;2.00;1.25;;;;;;;;;;5095772;28;20027;-59
2023/02/15 10:25:32;;;;;;;0.87;0.83;;;;;;;;;;5095590;28;20035;-59
2023/02/15 10:28:05;;;;;;;0.90;0.90;;;;;;;;;;5095758;28;20028;-59
2023/02/15 10:30:41;;;;;;;1.73;1.40;;;;;;;;;;5093725;28;20755;-59
2023/02/15 10:33:25;;;;;;;1.37;1.20;;;;;;;;;;5105712;28;20272;-59
2023/02/15 10:36:04;;;;;;;1.07;0.83;;;;;;;;;;5110053;28;20301;-59
2023/02/15 10:38:49;;;;;;;1.20;0.93;;;;;;;;;;5110616;28;20268;-59
2023/02/15 10:41:22;;;;;;;0.98;0.70;;;;;;;;;;5113358;28;20240;-59
2023/02/15 10:44:21;;;;;;;1.23;0.90;;;;;;;;;;5108344;28;20031;-59
2023/02/15 10:46:56;;;;;;;3.37;1.23;;;;;;;;;;5040287;28;20608;-59
2023/02/15 10:49:23;;;;;;;;;;;;;;;;;;5077639;28;20623;-59
2023/02/15 10:51:55;;;;;;;1.20;1.00;;;;;;;;;;5094826;28;19911;-59
2023/02/15 10:54:45;;;;;;;3.27;1.60;;;;;;;;;;5089836;28;20264;-59
2023/02/15 10:57:28;;;;;;;2.33;1.57;;;;;;;;;;5095421;28;20773;-59
2023/02/15 11:00:16;;;;;;;1.80;1.00;;;;;;;;;;5109817;28;20260;-59
2023/02/15 11:02:43;;;;;;;1.93;1.07;;;;;;;;;;5093357;28;20339;-59
2023/02/15 11:05:21;;;;;;;0.77;0.70;;;;;;;;;;5076709;28;20613;-59
2023/02/15 11:07:48;;;;;;;1.93;1.03;;;;;;;;;;5100048;28;20363;-59
2023/02/15 11:10:21;;;;;;;2.00;0.93;;;;;;;;;;5115411;28;20314;-58
2023/02/15 11:12:49;;;;;;;1.60;1.20;;;;;;;;;;5114581;28;20268;-59
2023/02/15 11:15:35;;;;;;;0.87;0.77;;;;;;;;;;5112431;28;20312;-59
2023/02/15 11:18:25;;;;;;;1.57;1.33;;;;;;;;;;5109349;28;20248;-59
2023/02/15 11:20:56;;;;;;;0.97;0.93;;;;;;;;;;5097335;28;20268;-59
2023/02/15 11:23:25;;;;;;;1.90;1.63;;;;;;;;;;5089215;28;20704;-59
2023/02/15 11:26:00;;;;;;;1.30;1.20;;;;;;;;;;5092723;28;20600;-59
2023/02/15 11:28:41;;;;;;;2.33;1.10;;;;;;;;;;5094554;28;20889;-59
2023/02/15 11:31:34;;;;;;;2.30;1.43;;;;;;;;;;5094948;28;20661;-60
2023/02/15 11:34:04;;;;;;;0.80;0.77;;;;;;;;;;5070526;28;20315;-58
2023/02/15 11:36:35;;;;;;;2.73;1.20;;;;;;;;;;5074085;28;20258;-58
2023/02/15 11:39:04;;;;;;;6.90;1.37;;;;;;;;;;5078739;28;20264;-58
2023/02/15 11:41:34;;;;;;;4.83;1.40;;;;;;;;;;5109321;28;20248;-59
2023/02/15 11:44:01;;;;;;;2.47;1.07;;;;;;;;;;5109367;28;20253;-59
2023/02/15 11:46:28;;;;;;;1.67;1.30;;;;;;;;;;5108702;28;20746;-58
2023/02/15 11:48:55;;;;;;;4.57;1.40;;;;;;;;;;5110786;28;20787;-58
2023/02/15 11:51:22;;;;;;;1.77;1.40;;;;;;;;;;5094137;28;20295;-59
2023/02/15 11:53:50;;;;;;;1.07;0.97;;;;;;;;;;5094386;28;20628;-58
2023/02/15 11:56:17;;;;;;;0.77;0.70;;;;;;;;;;5093977;28;20257;-59
2023/02/15 11:58:46;;;;;;;2.43;1.43;;;;;;;;;;5093770;28;20263;-59
2023/02/15 12:01:19;;;;;;;2.20;1.20;;;;;;;;;;5092786;28;20272;-59
2023/02/15 12:03:48;;;;;;;1.10;0.90;;;;;;;;;;5108824;28;20778;-58
2023/02/15 12:06:21;;;;;;;1.73;1.30;;;;;;;;;;5108837;28;20726;-59
2023/02/15 12:09:08;;;;;;;1.33;1.10;;;;;;;;;;5108738;28;20634;-59
2023/02/15 12:11:36;;;;;;;1.20;0.67;;;;;;;;;;5062162;28;20811;-58
2023/02/15 12:14:05;;;;;;;1.93;1.27;;;;;;;;;;5104692;28;20272;-59
2023/02/15 12:16:41;;;;;;;1.53;1.20;;;;;;;;;;5093403;28;20635;-59
2023/02/15 12:19:14;;;;;;;2.47;1.30;;;;;;;;;;5093677;28;20339;-59
2023/02/15 12:21:42;;;;;;;5.33;2.20;;;;;;;;;;5091837;28;20739;-59
2023/02/15 12:24:18;;;;;;;2.90;0.83;;;;;;;;;;5087022;28;20249;-59
2023/02/15 12:26:45;;;;;;;2.77;1.43;;;;;;;;;;5103128;28;20268;-59
2023/02/15 12:29:20;;;;;;;1.20;1.10;;;;;;;;;;5108348;28;20284;-59
2023/02/15 12:31:48;;;;;;;1.60;1.20;;;;;;;;;;5110099;28;20262;-58
2023/02/15 12:34:32;;;;;;;8.80;1.53;;;;;;;;;;5113243;28;20027;-58
2023/02/15 12:37:02;;;;;;;3.93;2.27;;;;;;;;;;5113580;28;20306;-58
2023/02/15 12:39:30;;;;;;;1.73;1.20;;;;;;;;;;5094277;28;20261;-59
2023/02/15 12:41:56;;;;;;;2.57;1.70;;;;;;;;;;5093045;28;20289;-58
2023/02/15 12:44:25;;;;;;;3.27;1.57;;;;;;;;;;5090478;28;20310;-59
2023/02/15 12:47:00;;;;;;;1.27;0.83;;;;;;;;;;5087478;28;20257;-58
2023/02/15 12:49:28;;;;;;;1.42;1.20;;;;;;;;;;5089074;28;20611;-58
2023/02/15 12:51:54;;;;;;;4.07;2.23;;;;;;;;;;5108102;28;20024;-58
2023/02/15 12:54:30;;;;;;;3.60;1.70;;;;;;;;;;5110294;28;20256;-59
2023/02/15 12:56:57;;;;;;;4.93;2.73;;;;;;;;;;5113183;28;20343;-58
2023/02/15 12:59:24;;;;;;;4.93;2.17;;;;;;;;;;5112851;28;20263;-58
2023/02/15 13:01:54;;;;;;;4.83;2.60;;;;;;;;;;5108370;28;20281;-59
2023/02/15 13:04:23;;;;;;;11.53;1.50;;;;;;;;;;5092809;28;20644;-58
2023/02/15 13:06:52;;;;;;;2.10;1.63;;;;;;;;;;5089568;28;20252;-59
2023/02/15 13:09:34;;;;;;;16.03;2.43;;;;;;;;;;5087343;28;20277;-59
2023/02/15 13:12:21;;;;;;;3.50;2.63;;;;;;;;;;5087019;28;20278;-59
2023/02/15 13:14:51;;;;;;;3.03;2.40;;;;;;;;;;5096927;28;20784;-58
2023/02/15 13:17:18;;;;;;;2.63;1.60;;;;;;;;;;5111284;28;20580;-58
2023/02/15 13:19:54;;;;;;;3.83;2.53;;;;;;;;;;5112810;28;20262;-59
2023/02/15 13:22:26;;;;;;;5.33;3.40;;;;;;;;;;5112793;28;20292;-58
2023/02/15 13:24:58;;;;;;;2.07;1.60;;;;;;;;;;5112764;28;20256;-58
2023/02/15 13:27:28;;;;;;;2.87;2.07;;;;;;;;;;5099129;28;20296;-58
2023/02/15 13:29:58;;;;;;;5.00;2.77;;;;;;;;;;5087306;28;20279;-59
2023/02/15 13:32:30;;;;;;;3.87;2.60;;;;;;;;;;5087383;28;20355;-58
2023/02/15 13:35:01;;;;;;;5.60;2.90;;;;;;;;;;5086799;28;20659;-59
2023/02/15 13:37:46;;;;;;;5.87;3.30;;;;;;;;;;5086856;28;20272;-58
2023/02/15 13:40:31;;;;;;;3.42;1.75;;;;;;;;;;5092429;28;20253;-58
2023/02/15 13:43:03;;;;;;;7.35;2.85;;;;;;;;;;5072127;28;20484;-59
2023/02/15 13:45:45;;;;;;;11.40;3.33;;;;;;;;;;5072045;28;20029;-59
2023/02/15 13:48:14;;;;;;;38.73;4.23;;;;;;;;;;5071983;28;20288;-59
2023/02/15 13:51:03;;;;;;;13.40;3.47;;;;;;;;;;5070249;28;20257;-59
2023/02/15 13:53:36;;;;;;;4.40;2.00;;;;;;;;;;5084907;28;20275;-59
2023/02/15 13:56:13;;;;;;;12.03;3.03;;;;;;;;;;5107228;28;20333;-59
2023/02/15 13:58:58;;;;;;;12.40;4.17;;;;;;;;;;5107210;28;20264;-59
2023/02/15 14:01:35;;;;;;;17.38;4.85;;;;;;;;;;5110150;28;20098;-60
2023/02/15 14:04:20;;;;;;;26.13;4.27;;;;;;;;;;5112394;28;20049;-59
2023/02/15 14:06:51;;;;;;;27.55;3.60;;;;;;;;;;5104369;28;20454;-59
2023/02/15 14:09:35;;;;;;;8.10;3.60;;;;;;;;;;5112297;28;20027;-59
2023/02/15 14:12:21;;;;;;;10.10;4.30;;;;;;;;;;5112259;28;20036;-59
2023/02/15 14:14:51;;;;;;;12.50;4.57;;;;;;;;;;5106820;28;20035;-59
2023/02/15 14:17:36;;;;;;;9.07;3.47;;;;;;;;;;5086867;28;20016;-60
2023/02/15 14:20:23;;;;;;;25.13;4.05;;;;;;;;;;5086611;28;20016;-60
2023/02/15 14:23:13;;;;;;;22.67;4.30;;;;;;;;;;5070513;28;20107;-60
2023/02/15 14:25:46;;;;;;;24.80;3.00;;;;;;;;;;5079141;28;20499;-60
2023/02/15 14:28:33;;;;;;;11.50;3.87;;;;;;;;;;5099225;28;20056;-61
2023/02/15 14:31:00;;;;;;;2.40;1.60;;;;;;;;;;5112245;28;20080;-60
2023/02/15 14:33:39;;;;;;;13.53;3.87;;;;;;;;;;5091976;28;20103;-60
2023/02/15 14:36:08;;;;;;;3.43;2.13;;;;;;;;;;5087599;28;20401;-60
2023/02/15 14:38:53;;;;;;;4.40;2.27;;;;;;;;;;5086430;28;20458;-60
2023/02/15 14:41:40;;;;;;;6.47;2.30;;;;;;;;;;5087182;28;20053;-60
2023/02/15 14:44:07;;;;;;;4.67;2.20;;;;;;;;;;5088373;28;20489;-60
2023/02/15 14:46:40;;;;;;;8.73;2.20;;;;;;;;;;5107144;28;20020;-60
2023/02/15 14:49:13;;;;;;;3.10;1.90;;;;;;;;;;5095240;28;20111;-60
2023/02/15 14:51:45;;;;;;;11.50;1.40;;;;;;;;;;5095194;28;20020;-60
2023/02/15 14:54:35;;;;;;;6.37;3.10;;;;;;;;;;5095123;28;20375;-60
2023/02/15 15:09:39;;;;;;;24.70;2.43;;;;;;;;;;5187958;27;20356;-63
2023/02/15 15:12:35;;;;;;;13.10;2.93;;;;;;;;;;5069990;27;2132648;-63
2023/02/15 15:15:02;;;;;;;9.67;3.10;;;;;;;;;;5054521;27;20037;-63
2023/02/15 15:17:32;;;;;;;3.87;2.17;;;;;;;;;;5145493;27;20035;-62
2023/02/15 15:20:34;;;;;;;7.60;2.17;;;;;;;;;;5152366;27;20078;-63
2023/02/15 15:23:16;;;;;;;6.37;2.80;;;;;;;;;;5171746;27;20097;-63
2023/02/15 15:25:47;;;;;;;7.60;1.60;;;;;;;;;;5171733;27;20018;-63
2023/02/15 15:28:32;;;;;;;7.70;2.03;;;;;;;;;;5171171;27;20015;-63
2023/02/15 15:30:59;;;;;;;;;;;;;;;;;;5171747;27;20065;-63
2023/02/15 15:33:32;;;;;;;5.57;1.60;;;;;;;;;;5166951;27;19910;-63
2023/02/15 15:36:17;;;;;;;6.27;2.30;;;;;;;;;;5166056;27;20030;-64
2023/02/15 15:38:56;;;;;;;1.92;1.30;;;;;;;;;;5165893;27;20046;-63
2023/02/15 15:41:42;;;;;;;3.60;2.10;;;;;;;;;;5165753;27;20094;-63
2023/02/15 15:44:12;;;;;;;18.77;9.27;;;;;;;;;;5170815;27;20022;-63
2023/02/15 15:46:47;;;;;;;4.07;2.33;;;;;;;;;;5171123;27;20038;-63
2023/02/15 15:49:16;;;;;;;3.78;2.05;;;;;;;;;;5170867;27;20080;-62